sensor_id;sensor_type;location;lat;lon;timestamp;temperature;humidity
7192;DHT22;3637;51.494;11.958;2022-11-04T00:02:57;11.10;99.90
7192;DHT22;3637;51.494;11.958;2022-11-04T00:05:59;11.10;99.90
7192;DHT22;3637;51.494;11.958;2022-11-04T00:09:02;11.10;99.90
7192;DHT22;3637;51.494;11.958;2022-11-04T00:12:05;11.10;99.90
7192;DHT22;3637;51.494;11.958;2022-11-04T00:15:25;11.50;99.90
7192;DHT22;3637;51.494;11.958;2022-11-04T00:18:44;11.10;99.90
7192;DHT22;3637;51.494;11.958;2022-11-04T00:21:46;11.20;99.90
7192;DHT22;3637;51.494;11.958;2022-11-04T00:25:07;11.20;99.90
7192;DHT22;3637;51.494;11.958;2022-11-04T00:28:27;11.20;99.90
7192;DHT22;3637;51.494;11.958;2022-11-04T00:31:45;11.20;99.90
7192;DHT22;3637;51.494;11.958;2022-11-04T00:35:05;11.30;99.90
7192;DHT22;3637;51.494;11.958;2022-11-04T00:38:07;11.30;99.90
7192;DHT22;3637;51.494;11.958;2022-11-04T00:41:09;11.30;99.90
7192;DHT22;3637;51.494;11.958;2022-11-04T00:44:24;11.20;99.90
7192;DHT22;3637;51.494;11.958;2022-11-04T00:47:30;11.20;99.90
7192;DHT22;3637;51.494;11.958;2022-11-04T00:50:32;11.10;99.90
7192;DHT22;3637;51.494;11.958;2022-11-04T00:53:34;11.10;99.90
7192;DHT22;3637;51.494;11.958;2022-11-04T00:56:36;11.10;99.90
7192;DHT22;3637;51.494;11.958;2022-11-04T00:59:38;11.10;99.90
7192;DHT22;3637;51.494;11.958;2022-11-04T01:02:42;11.10;99.90
7192;DHT22;3637;51.494;11.958;2022-11-04T01:05:44;11.00;99.90
7192;DHT22;3637;51.494;11.958;2022-11-04T01:08:46;11.50;99.90
7192;DHT22;3637;51.494;11.958;2022-11-04T01:11:48;11.10;99.90
7192;DHT22;3637;51.494;11.958;2022-11-04T01:14:50;11.00;99.90
7192;DHT22;3637;51.494;11.958;2022-11-04T01:17:53;11.10;99.90
7192;DHT22;3637;51.494;11.958;2022-11-04T01:20:59;11.10;99.90
7192;DHT22;3637;51.494;11.958;2022-11-04T01:24:01;11.10;99.90
7192;DHT22;3637;51.494;11.958;2022-11-04T01:27:03;11.10;99.90
7192;DHT22;3637;51.494;11.958;2022-11-04T01:30:06;11.10;99.90
7192;DHT22;3637;51.494;11.958;2022-11-04T01:33:10;11.10;99.90
7192;DHT22;3637;51.494;11.958;2022-11-04T01:36:12;11.40;99.90
7192;DHT22;3637;51.494;11.958;2022-11-04T01:39:14;11.40;99.90
7192;DHT22;3637;51.494;11.958;2022-11-04T01:42:20;11.40;99.90
7192;DHT22;3637;51.494;11.958;2022-11-04T01:45:22;11.20;99.90
7192;DHT22;3637;51.494;11.958;2022-11-04T01:48:27;11.20;99.90
7192;DHT22;3637;51.494;11.958;2022-11-04T01:51:31;11.30;99.90
7192;DHT22;3637;51.494;11.958;2022-11-04T01:54:34;11.50;99.90
7192;DHT22;3637;51.494;11.958;2022-11-04T01:57:40;11.30;99.90
7192;DHT22;3637;51.494;11.958;2022-11-04T02:00:43;11.30;99.90
7192;DHT22;3637;51.494;11.958;2022-11-04T02:03:51;11.50;99.90
7192;DHT22;3637;51.494;11.958;2022-11-04T02:06:55;11.40;99.90
7192;DHT22;3637;51.494;11.958;2022-11-04T02:09:57;11.30;99.90
7192;DHT22;3637;51.494;11.958;2022-11-04T02:13:01;11.40;99.90
7192;DHT22;3637;51.494;11.958;2022-11-04T02:16:10;11.40;99.90
7192;DHT22;3637;51.494;11.958;2022-11-04T02:19:36;11.40;99.90
7192;DHT22;3637;51.494;11.958;2022-11-04T02:22:56;11.40;99.90
7192;DHT22;3637;51.494;11.958;2022-11-04T02:29:59;11.40;99.90
7192;DHT22;3637;51.494;11.958;2022-11-04T02:33:11;11.40;99.90
7192;DHT22;3637;51.494;11.958;2022-11-04T02:36:21;11.30;99.90
7192;DHT22;3637;51.494;11.958;2022-11-04T02:39:33;11.40;99.90
7192;DHT22;3637;51.494;11.958;2022-11-04T02:42:40;11.40;99.90
7192;DHT22;3637;51.494;11.958;2022-11-04T02:45:50;11.40;99.90
7192;DHT22;3637;51.494;11.958;2022-11-04T02:48:56;11.40;99.90
7192;DHT22;3637;51.494;11.958;2022-11-04T02:52:03;11.40;99.90
7192;DHT22;3637;51.494;11.958;2022-11-04T02:55:09;11.30;99.90
7192;DHT22;3637;51.494;11.958;2022-11-04T02:58:17;11.30;99.90
7192;DHT22;3637;51.494;11.958;2022-11-04T03:01:26;11.20;99.90
7192;DHT22;3637;51.494;11.958;2022-11-04T03:04:33;11.30;99.90
7192;DHT22;3637;51.494;11.958;2022-11-04T03:07:39;11.30;99.90
7192;DHT22;3637;51.494;11.958;2022-11-04T03:10:48;11.30;99.90
7192;DHT22;3637;51.494;11.958;2022-11-04T03:13:54;11.20;99.90
7192;DHT22;3637;51.494;11.958;2022-11-04T03:17:03;11.30;99.90
7192;DHT22;3637;51.494;11.958;2022-11-04T03:20:09;11.30;99.90
7192;DHT22;3637;51.494;11.958;2022-11-04T03:23:12;11.30;99.90
7192;DHT22;3637;51.494;11.958;2022-11-04T03:26:22;11.30;99.90
7192;DHT22;3637;51.494;11.958;2022-11-04T03:29:31;11.30;99.90
7192;DHT22;3637;51.494;11.958;2022-11-04T03:32:41;11.30;99.90
7192;DHT22;3637;51.494;11.958;2022-11-04T03:35:46;11.20;99.90
7192;DHT22;3637;51.494;11.958;2022-11-04T03:38:49;11.30;99.90
7192;DHT22;3637;51.494;11.958;2022-11-04T03:41:54;11.40;99.90
7192;DHT22;3637;51.494;11.958;2022-11-04T03:44:57;11.30;99.90
7192;DHT22;3637;51.494;11.958;2022-11-04T03:48:01;11.40;99.90
7192;DHT22;3637;51.494;11.958;2022-11-04T03:51:04;11.40;99.90
7192;DHT22;3637;51.494;11.958;2022-11-04T03:54:06;11.30;99.90
7192;DHT22;3637;51.494;11.958;2022-11-04T03:57:22;11.50;99.90
7192;DHT22;3637;51.494;11.958;2022-11-04T04:00:31;11.30;99.90
7192;DHT22;3637;51.494;11.958;2022-11-04T04:03:40;11.30;99.90
7192;DHT22;3637;51.494;11.958;2022-11-04T04:06:44;11.30;99.90
7192;DHT22;3637;51.494;11.958;2022-11-04T04:09:50;11.30;99.90
7192;DHT22;3637;51.494;11.958;2022-11-04T04:12:58;11.30;99.90
7192;DHT22;3637;51.494;11.958;2022-11-04T04:16:03;11.40;99.90
7192;DHT22;3637;51.494;11.958;2022-11-04T04:19:12;11.40;99.90
7192;DHT22;3637;51.494;11.958;2022-11-04T04:22:18;11.40;99.90
7192;DHT22;3637;51.494;11.958;2022-11-04T04:25:24;11.40;99.90
7192;DHT22;3637;51.494;11.958;2022-11-04T04:28:45;11.40;99.90
7192;DHT22;3637;51.494;11.958;2022-11-04T04:31:48;11.40;99.90
7192;DHT22;3637;51.494;11.958;2022-11-04T04:34:51;11.40;99.90
7192;DHT22;3637;51.494;11.958;2022-11-04T04:38:18;11.40;99.90
7192;DHT22;3637;51.494;11.958;2022-11-04T04:41:39;11.50;99.90
7192;DHT22;3637;51.494;11.958;2022-11-04T04:45:00;11.50;99.90
7192;DHT22;3637;51.494;11.958;2022-11-04T04:48:10;11.50;99.90
7192;DHT22;3637;51.494;11.958;2022-11-04T04:51:14;11.50;99.90
7192;DHT22;3637;51.494;11.958;2022-11-04T04:54:16;11.50;99.90
7192;DHT22;3637;51.494;11.958;2022-11-04T04:57:18;11.50;99.90
7192;DHT22;3637;51.494;11.958;2022-11-04T05:00:20;11.50;99.90
7192;DHT22;3637;51.494;11.958;2022-11-04T05:03:23;11.40;99.90
7192;DHT22;3637;51.494;11.958;2022-11-04T05:06:29;11.40;99.90
7192;DHT22;3637;51.494;11.958;2022-11-04T05:09:30;11.40;99.90
7192;DHT22;3637;51.494;11.958;2022-11-04T05:12:33;11.40;99.90
7192;DHT22;3637;51.494;11.958;2022-11-04T05:15:49;11.60;99.90
7192;DHT22;3637;51.494;11.958;2022-11-04T05:18:51;11.60;99.90
7192;DHT22;3637;51.494;11.958;2022-11-04T05:21:54;11.50;99.90
7192;DHT22;3637;51.494;11.958;2022-11-04T05:24:56;11.50;99.90
7192;DHT22;3637;51.494;11.958;2022-11-04T05:27:59;11.50;99.90
7192;DHT22;3637;51.494;11.958;2022-11-04T05:31:02;11.50;99.90
7192;DHT22;3637;51.494;11.958;2022-11-04T05:34:04;11.50;99.90
7192;DHT22;3637;51.494;11.958;2022-11-04T05:37:07;11.70;99.90
7192;DHT22;3637;51.494;11.958;2022-11-04T05:40:10;11.50;99.90
7192;DHT22;3637;51.494;11.958;2022-11-04T05:43:12;11.50;99.90
7192;DHT22;3637;51.494;11.958;2022-11-04T05:46:14;11.50;99.90
7192;DHT22;3637;51.494;11.958;2022-11-04T05:49:16;11.50;99.90
7192;DHT22;3637;51.494;11.958;2022-11-04T05:52:19;11.50;99.90
7192;DHT22;3637;51.494;11.958;2022-11-04T05:55:22;11.60;99.90
7192;DHT22;3637;51.494;11.958;2022-11-04T05:58:23;11.60;99.90
7192;DHT22;3637;51.494;11.958;2022-11-04T06:01:30;11.60;99.90
7192;DHT22;3637;51.494;11.958;2022-11-04T06:04:32;11.60;99.90
7192;DHT22;3637;51.494;11.958;2022-11-04T06:07:36;11.60;99.90
7192;DHT22;3637;51.494;11.958;2022-11-04T06:10:38;11.60;99.90
7192;DHT22;3637;51.494;11.958;2022-11-04T06:13:40;11.60;99.90
7192;DHT22;3637;51.494;11.958;2022-11-04T06:16:42;11.60;99.90
7192;DHT22;3637;51.494;11.958;2022-11-04T06:19:44;11.50;99.90
7192;DHT22;3637;51.494;11.958;2022-11-04T06:22:47;11.50;99.90
7192;DHT22;3637;51.494;11.958;2022-11-04T06:25:51;11.60;99.90
7192;DHT22;3637;51.494;11.958;2022-11-04T06:28:53;11.50;99.90
7192;DHT22;3637;51.494;11.958;2022-11-04T06:31:55;11.60;99.90
7192;DHT22;3637;51.494;11.958;2022-11-04T06:34:57;11.50;99.90
7192;DHT22;3637;51.494;11.958;2022-11-04T06:38:00;11.60;99.90
7192;DHT22;3637;51.494;11.958;2022-11-04T06:41:03;11.60;99.90
7192;DHT22;3637;51.494;11.958;2022-11-04T06:44:05;12.00;99.90
7192;DHT22;3637;51.494;11.958;2022-11-04T06:47:08;11.60;99.90
7192;DHT22;3637;51.494;11.958;2022-11-04T06:50:11;11.60;99.90
7192;DHT22;3637;51.494;11.958;2022-11-04T06:53:15;11.60;99.90
7192;DHT22;3637;51.494;11.958;2022-11-04T06:56:17;11.70;99.90
7192;DHT22;3637;51.494;11.958;2022-11-04T06:59:19;11.70;99.90
7192;DHT22;3637;51.494;11.958;2022-11-04T07:02:21;11.70;99.90
7192;DHT22;3637;51.494;11.958;2022-11-04T07:05:24;11.80;99.90
7192;DHT22;3637;51.494;11.958;2022-11-04T07:08:27;11.70;99.90
7192;DHT22;3637;51.494;11.958;2022-11-04T07:11:30;11.70;99.90
7192;DHT22;3637;51.494;11.958;2022-11-04T07:14:33;11.70;99.90
7192;DHT22;3637;51.494;11.958;2022-11-04T07:17:34;11.70;99.90
7192;DHT22;3637;51.494;11.958;2022-11-04T07:20:36;11.60;99.90
7192;DHT22;3637;51.494;11.958;2022-11-04T07:23:40;11.70;99.90
7192;DHT22;3637;51.494;11.958;2022-11-04T07:26:42;11.70;99.90
7192;DHT22;3637;51.494;11.958;2022-11-04T07:29:44;11.70;99.90
7192;DHT22;3637;51.494;11.958;2022-11-04T07:32:46;11.70;99.90
7192;DHT22;3637;51.494;11.958;2022-11-04T07:35:48;11.80;99.90
7192;DHT22;3637;51.494;11.958;2022-11-04T07:38:51;11.70;99.90
7192;DHT22;3637;51.494;11.958;2022-11-04T07:41:53;11.70;99.90
7192;DHT22;3637;51.494;11.958;2022-11-04T07:44:56;11.70;99.90
7192;DHT22;3637;51.494;11.958;2022-11-04T07:47:57;11.70;99.90
7192;DHT22;3637;51.494;11.958;2022-11-04T07:51:00;11.70;99.90
7192;DHT22;3637;51.494;11.958;2022-11-04T07:54:03;11.70;99.90
7192;DHT22;3637;51.494;11.958;2022-11-04T07:57:05;11.70;99.90
7192;DHT22;3637;51.494;11.958;2022-11-04T08:00:09;11.70;99.90
7192;DHT22;3637;51.494;11.958;2022-11-04T08:03:11;11.70;99.90
7192;DHT22;3637;51.494;11.958;2022-11-04T08:06:14;11.70;99.90
7192;DHT22;3637;51.494;11.958;2022-11-04T08:09:18;11.70;99.90
7192;DHT22;3637;51.494;11.958;2022-11-04T08:12:19;11.70;99.90
7192;DHT22;3637;51.494;11.958;2022-11-04T08:15:23;11.70;99.90
7192;DHT22;3637;51.494;11.958;2022-11-04T08:18:25;11.70;99.90
7192;DHT22;3637;51.494;11.958;2022-11-04T08:21:28;11.60;99.90
7192;DHT22;3637;51.494;11.958;2022-11-04T08:24:31;11.60;99.90
7192;DHT22;3637;51.494;11.958;2022-11-04T08:27:33;11.70;99.90
7192;DHT22;3637;51.494;11.958;2022-11-04T08:30:35;11.60;99.90
7192;DHT22;3637;51.494;11.958;2022-11-04T08:33:37;11.60;99.90
7192;DHT22;3637;51.494;11.958;2022-11-04T08:36:40;11.70;99.90
7192;DHT22;3637;51.494;11.958;2022-11-04T08:39:44;11.60;99.90
7192;DHT22;3637;51.494;11.958;2022-11-04T08:42:46;11.60;99.90
7192;DHT22;3637;51.494;11.958;2022-11-04T08:45:48;11.60;99.90
7192;DHT22;3637;51.494;11.958;2022-11-04T08:48:49;11.70;99.90
7192;DHT22;3637;51.494;11.958;2022-11-04T08:51:51;11.70;99.90
7192;DHT22;3637;51.494;11.958;2022-11-04T08:54:58;11.80;99.90
7192;DHT22;3637;51.494;11.958;2022-11-04T08:58:00;11.70;99.90
7192;DHT22;3637;51.494;11.958;2022-11-04T09:01:02;11.80;99.90
7192;DHT22;3637;51.494;11.958;2022-11-04T09:04:05;11.90;99.90
7192;DHT22;3637;51.494;11.958;2022-11-04T09:07:07;11.90;99.90
7192;DHT22;3637;51.494;11.958;2022-11-04T09:10:11;11.90;99.90
7192;DHT22;3637;51.494;11.958;2022-11-04T09:13:15;11.90;99.90
7192;DHT22;3637;51.494;11.958;2022-11-04T09:16:16;12.00;99.90
7192;DHT22;3637;51.494;11.958;2022-11-04T09:19:18;12.00;99.90
7192;DHT22;3637;51.494;11.958;2022-11-04T09:22:20;12.10;99.90
7192;DHT22;3637;51.494;11.958;2022-11-04T09:25:24;12.10;99.90
7192;DHT22;3637;51.494;11.958;2022-11-04T09:28:26;12.20;99.90
7192;DHT22;3637;51.494;11.958;2022-11-04T09:31:30;12.10;99.90
7192;DHT22;3637;51.494;11.958;2022-11-04T09:34:32;12.30;99.90
7192;DHT22;3637;51.494;11.958;2022-11-04T09:37:34;12.20;99.90
7192;DHT22;3637;51.494;11.958;2022-11-04T09:40:38;12.20;99.90
7192;DHT22;3637;51.494;11.958;2022-11-04T09:43:51;12.30;99.90
7192;DHT22;3637;51.494;11.958;2022-11-04T09:46:57;12.30;99.90
7192;DHT22;3637;51.494;11.958;2022-11-04T09:50:01;12.20;99.90
7192;DHT22;3637;51.494;11.958;2022-11-04T09:53:08;12.30;99.90
7192;DHT22;3637;51.494;11.958;2022-11-04T09:56:17;12.30;99.90
7192;DHT22;3637;51.494;11.958;2022-11-04T09:59:25;12.30;99.90
7192;DHT22;3637;51.494;11.958;2022-11-04T10:02:39;12.20;99.90
7192;DHT22;3637;51.494;11.958;2022-11-04T10:05:55;12.20;99.90
7192;DHT22;3637;51.494;11.958;2022-11-04T10:09:21;12.20;99.90
7192;DHT22;3637;51.494;11.958;2022-11-04T10:12:40;12.10;99.90
7192;DHT22;3637;51.494;11.958;2022-11-04T10:19:32;12.10;99.90
7192;DHT22;3637;51.494;11.958;2022-11-04T10:22:42;12.00;99.90
7192;DHT22;3637;51.494;11.958;2022-11-04T10:25:49;12.20;99.90
7192;DHT22;3637;51.494;11.958;2022-11-04T10:29:02;12.10;99.90
7192;DHT22;3637;51.494;11.958;2022-11-04T10:32:12;12.00;99.90
7192;DHT22;3637;51.494;11.958;2022-11-04T10:35:21;12.00;99.90
7192;DHT22;3637;51.494;11.958;2022-11-04T10:38:34;12.00;99.90
7192;DHT22;3637;51.494;11.958;2022-11-04T10:41:38;12.00;99.90
7192;DHT22;3637;51.494;11.958;2022-11-04T10:44:42;12.30;99.90
7192;DHT22;3637;51.494;11.958;2022-11-04T10:47:50;12.00;99.90
7192;DHT22;3637;51.494;11.958;2022-11-04T10:50:56;12.00;99.90
7192;DHT22;3637;51.494;11.958;2022-11-04T10:53:59;11.90;99.90
7192;DHT22;3637;51.494;11.958;2022-11-04T10:57:03;12.00;99.90
7192;DHT22;3637;51.494;11.958;2022-11-04T11:00:07;12.00;99.90
7192;DHT22;3637;51.494;11.958;2022-11-04T11:03:28;12.00;99.90
7192;DHT22;3637;51.494;11.958;2022-11-04T11:06:31;12.00;99.90
7192;DHT22;3637;51.494;11.958;2022-11-04T11:09:35;12.00;99.90
7192;DHT22;3637;51.494;11.958;2022-11-04T11:12:38;12.00;99.90
7192;DHT22;3637;51.494;11.958;2022-11-04T11:16:04;11.90;99.90
7192;DHT22;3637;51.494;11.958;2022-11-04T11:19:15;12.00;99.90
7192;DHT22;3637;51.494;11.958;2022-11-04T11:22:31;11.90;99.90
7192;DHT22;3637;51.494;11.958;2022-11-04T11:25:35;12.00;99.90
7192;DHT22;3637;51.494;11.958;2022-11-04T11:28:39;12.00;99.90
7192;DHT22;3637;51.494;11.958;2022-11-04T11:31:43;12.00;99.90
7192;DHT22;3637;51.494;11.958;2022-11-04T11:34:45;12.00;99.90
7192;DHT22;3637;51.494;11.958;2022-11-04T11:37:48;12.00;99.90
7192;DHT22;3637;51.494;11.958;2022-11-04T11:40:51;12.00;99.90
7192;DHT22;3637;51.494;11.958;2022-11-04T11:43:54;12.00;99.90
7192;DHT22;3637;51.494;11.958;2022-11-04T11:47:00;12.00;99.90
7192;DHT22;3637;51.494;11.958;2022-11-04T11:50:13;12.00;99.90
7192;DHT22;3637;51.494;11.958;2022-11-04T11:53:18;11.90;99.90
7192;DHT22;3637;51.494;11.958;2022-11-04T11:56:26;12.00;99.90
7192;DHT22;3637;51.494;11.958;2022-11-04T11:59:37;12.00;99.90
7192;DHT22;3637;51.494;11.958;2022-11-04T12:02:50;11.90;99.90
7192;DHT22;3637;51.494;11.958;2022-11-04T12:06:02;11.90;99.90
7192;DHT22;3637;51.494;11.958;2022-11-04T12:09:21;11.90;99.90
7192;DHT22;3637;51.494;11.958;2022-11-04T12:12:40;11.80;99.90
7192;DHT22;3637;51.494;11.958;2022-11-04T12:16:12;11.90;99.90
7192;DHT22;3637;51.494;11.958;2022-11-04T12:19:32;12.00;99.90
7192;DHT22;3637;51.494;11.958;2022-11-04T12:22:40;11.90;99.90
7192;DHT22;3637;51.494;11.958;2022-11-04T12:25:50;12.00;99.90
7192;DHT22;3637;51.494;11.958;2022-11-04T12:29:17;12.10;99.90
7192;DHT22;3637;51.494;11.958;2022-11-04T12:32:31;12.00;99.90
7192;DHT22;3637;51.494;11.958;2022-11-04T12:35:55;12.10;99.90
7192;DHT22;3637;51.494;11.958;2022-11-04T12:39:10;12.00;99.90
7192;DHT22;3637;51.494;11.958;2022-11-04T12:42:20;12.30;99.90
7192;DHT22;3637;51.494;11.958;2022-11-04T12:45:30;12.00;99.90
7192;DHT22;3637;51.494;11.958;2022-11-04T12:48:48;12.10;99.90
7192;DHT22;3637;51.494;11.958;2022-11-04T12:52:03;12.20;99.90
7192;DHT22;3637;51.494;11.958;2022-11-04T12:55:20;12.10;99.90
7192;DHT22;3637;51.494;11.958;2022-11-04T12:58:41;12.10;99.90
7192;DHT22;3637;51.494;11.958;2022-11-04T13:01:46;12.20;99.90
7192;DHT22;3637;51.494;11.958;2022-11-04T13:04:55;12.10;99.90
7192;DHT22;3637;51.494;11.958;2022-11-04T13:08:07;12.20;99.90
7192;DHT22;3637;51.494;11.958;2022-11-04T13:11:13;12.30;99.90
7192;DHT22;3637;51.494;11.958;2022-11-04T13:14:28;12.30;99.90
7192;DHT22;3637;51.494;11.958;2022-11-04T13:17:33;12.40;99.90
7192;DHT22;3637;51.494;11.958;2022-11-04T13:20:40;12.50;99.90
7192;DHT22;3637;51.494;11.958;2022-11-04T13:23:51;12.50;99.90
7192;DHT22;3637;51.494;11.958;2022-11-04T13:26:54;12.60;99.90
7192;DHT22;3637;51.494;11.958;2022-11-04T13:30:04;12.60;99.90
7192;DHT22;3637;51.494;11.958;2022-11-04T13:33:13;12.60;99.90
7192;DHT22;3637;51.494;11.958;2022-11-04T13:36:27;12.60;99.90
7192;DHT22;3637;51.494;11.958;2022-11-04T13:39:35;12.60;99.90
7192;DHT22;3637;51.494;11.958;2022-11-04T13:42:53;12.60;99.90
7192;DHT22;3637;51.494;11.958;2022-11-04T13:46:24;12.70;99.90
7192;DHT22;3637;51.494;11.958;2022-11-04T13:49:31;12.70;99.90
7192;DHT22;3637;51.494;11.958;2022-11-04T13:52:47;13.00;99.90
7192;DHT22;3637;51.494;11.958;2022-11-04T13:55:50;12.60;99.90
7192;DHT22;3637;51.494;11.958;2022-11-04T13:58:56;12.90;99.90
7192;DHT22;3637;51.494;11.958;2022-11-04T14:02:21;12.60;99.90
7192;DHT22;3637;51.494;11.958;2022-11-04T14:06:01;12.60;99.90
7192;DHT22;3637;51.494;11.958;2022-11-04T14:09:23;12.60;99.90
7192;DHT22;3637;51.494;11.958;2022-11-04T14:12:29;12.50;99.90
7192;DHT22;3637;51.494;11.958;2022-11-04T14:16:00;12.60;99.90
7192;DHT22;3637;51.494;11.958;2022-11-04T14:22:49;12.50;99.90
7192;DHT22;3637;51.494;11.958;2022-11-04T14:25:58;12.50;99.90
7192;DHT22;3637;51.494;11.958;2022-11-04T14:29:07;12.50;99.90
7192;DHT22;3637;51.494;11.958;2022-11-04T14:32:11;12.50;99.90
7192;DHT22;3637;51.494;11.958;2022-11-04T14:35:16;12.50;99.90
7192;DHT22;3637;51.494;11.958;2022-11-04T14:38:24;12.50;99.90
7192;DHT22;3637;51.494;11.958;2022-11-04T14:41:49;12.50;99.90
7192;DHT22;3637;51.494;11.958;2022-11-04T14:44:53;12.50;99.90
7192;DHT22;3637;51.494;11.958;2022-11-04T14:47:58;12.50;99.90
7192;DHT22;3637;51.494;11.958;2022-11-04T14:51:02;12.50;99.90
7192;DHT22;3637;51.494;11.958;2022-11-04T14:54:11;12.40;99.90
7192;DHT22;3637;51.494;11.958;2022-11-04T14:57:14;12.40;99.90
7192;DHT22;3637;51.494;11.958;2022-11-04T15:00:39;12.40;99.90
7192;DHT22;3637;51.494;11.958;2022-11-04T15:03:52;12.40;99.90
7192;DHT22;3637;51.494;11.958;2022-11-04T15:06:54;12.30;99.90
7192;DHT22;3637;51.494;11.958;2022-11-04T15:09:57;12.30;99.90
7192;DHT22;3637;51.494;11.958;2022-11-04T15:13:00;12.30;99.90
7192;DHT22;3637;51.494;11.958;2022-11-04T15:16:08;12.20;99.90
7192;DHT22;3637;51.494;11.958;2022-11-04T15:19:17;12.30;99.90
7192;DHT22;3637;51.494;11.958;2022-11-04T15:22:23;12.20;99.90
7192;DHT22;3637;51.494;11.958;2022-11-04T15:25:25;12.30;99.90
7192;DHT22;3637;51.494;11.958;2022-11-04T15:28:28;12.20;99.90
7192;DHT22;3637;51.494;11.958;2022-11-04T15:31:36;12.20;99.90
7192;DHT22;3637;51.494;11.958;2022-11-04T15:34:38;12.20;99.90
7192;DHT22;3637;51.494;11.958;2022-11-04T15:37:40;12.10;99.90
7192;DHT22;3637;51.494;11.958;2022-11-04T15:40:44;12.10;99.90
7192;DHT22;3637;51.494;11.958;2022-11-04T15:43:46;12.20;99.90
7192;DHT22;3637;51.494;11.958;2022-11-04T15:46:51;12.10;99.90
7192;DHT22;3637;51.494;11.958;2022-11-04T15:50:02;12.10;99.90
7192;DHT22;3637;51.494;11.958;2022-11-04T15:53:15;12.00;99.90
7192;DHT22;3637;51.494;11.958;2022-11-04T15:56:20;12.20;99.90
7192;DHT22;3637;51.494;11.958;2022-11-04T15:59:25;12.20;99.90
7192;DHT22;3637;51.494;11.958;2022-11-04T16:02:30;11.90;99.90
7192;DHT22;3637;51.494;11.958;2022-11-04T16:05:34;12.10;99.90
7192;DHT22;3637;51.494;11.958;2022-11-04T16:08:38;11.80;99.90
7192;DHT22;3637;51.494;11.958;2022-11-04T16:11:40;11.80;99.90
7192;DHT22;3637;51.494;11.958;2022-11-04T16:14:49;11.80;99.90
7192;DHT22;3637;51.494;11.958;2022-11-04T16:17:53;11.80;99.90
7192;DHT22;3637;51.494;11.958;2022-11-04T16:20:55;11.70;99.90
7192;DHT22;3637;51.494;11.958;2022-11-04T16:24:03;11.70;99.90
7192;DHT22;3637;51.494;11.958;2022-11-04T16:27:07;11.70;99.90
7192;DHT22;3637;51.494;11.958;2022-11-04T16:30:17;11.70;99.90
7192;DHT22;3637;51.494;11.958;2022-11-04T16:33:21;11.60;99.90
7192;DHT22;3637;51.494;11.958;2022-11-04T16:36:23;11.60;99.90
7192;DHT22;3637;51.494;11.958;2022-11-04T16:39:25;11.60;99.90
7192;DHT22;3637;51.494;11.958;2022-11-04T16:42:27;11.60;99.90
7192;DHT22;3637;51.494;11.958;2022-11-04T16:45:31;11.60;99.90
7192;DHT22;3637;51.494;11.958;2022-11-04T16:48:35;11.60;99.90
7192;DHT22;3637;51.494;11.958;2022-11-04T16:51:37;11.60;99.90
7192;DHT22;3637;51.494;11.958;2022-11-04T16:54:39;11.60;99.90
7192;DHT22;3637;51.494;11.958;2022-11-04T16:57:41;11.60;99.90
7192;DHT22;3637;51.494;11.958;2022-11-04T17:00:44;11.50;99.90
7192;DHT22;3637;51.494;11.958;2022-11-04T17:03:47;11.50;99.90
7192;DHT22;3637;51.494;11.958;2022-11-04T17:06:49;11.50;99.90
7192;DHT22;3637;51.494;11.958;2022-11-04T17:09:51;11.40;99.90
7192;DHT22;3637;51.494;11.958;2022-11-04T17:12:53;11.40;99.90
7192;DHT22;3637;51.494;11.958;2022-11-04T17:15:55;11.40;99.90
7192;DHT22;3637;51.494;11.958;2022-11-04T17:18:58;11.40;99.90
7192;DHT22;3637;51.494;11.958;2022-11-04T17:22:01;11.40;99.90
7192;DHT22;3637;51.494;11.958;2022-11-04T17:25:12;11.40;99.90
7192;DHT22;3637;51.494;11.958;2022-11-04T17:28:15;11.40;99.90
7192;DHT22;3637;51.494;11.958;2022-11-04T17:31:18;11.30;99.90
7192;DHT22;3637;51.494;11.958;2022-11-04T17:34:21;11.20;99.90
7192;DHT22;3637;51.494;11.958;2022-11-04T17:37:25;11.20;99.90
7192;DHT22;3637;51.494;11.958;2022-11-04T17:40:27;11.10;99.90
7192;DHT22;3637;51.494;11.958;2022-11-04T17:43:29;11.10;99.90
7192;DHT22;3637;51.494;11.958;2022-11-04T17:46:48;11.10;99.90
7192;DHT22;3637;51.494;11.958;2022-11-04T17:49:52;11.10;99.90
7192;DHT22;3637;51.494;11.958;2022-11-04T17:52:54;11.10;99.90
7192;DHT22;3637;51.494;11.958;2022-11-04T17:55:55;11.20;99.90
7192;DHT22;3637;51.494;11.958;2022-11-04T17:58:58;11.10;99.90
7192;DHT22;3637;51.494;11.958;2022-11-04T18:02:01;11.10;99.90
7192;DHT22;3637;51.494;11.958;2022-11-04T18:05:06;11.10;99.90
7192;DHT22;3637;51.494;11.958;2022-11-04T18:08:08;11.00;99.90
7192;DHT22;3637;51.494;11.958;2022-11-04T18:11:10;11.10;99.90
7192;DHT22;3637;51.494;11.958;2022-11-04T18:14:32;11.00;99.90
7192;DHT22;3637;51.494;11.958;2022-11-04T18:17:36;11.10;99.90
7192;DHT22;3637;51.494;11.958;2022-11-04T18:20:39;11.00;99.90
7192;DHT22;3637;51.494;11.958;2022-11-04T18:23:41;11.00;99.90
7192;DHT22;3637;51.494;11.958;2022-11-04T18:26:43;11.00;99.90
7192;DHT22;3637;51.494;11.958;2022-11-04T18:29:45;11.00;99.90
7192;DHT22;3637;51.494;11.958;2022-11-04T18:32:47;10.90;99.90
7192;DHT22;3637;51.494;11.958;2022-11-04T18:35:50;11.00;99.90
7192;DHT22;3637;51.494;11.958;2022-11-04T18:38:52;11.00;99.90
7192;DHT22;3637;51.494;11.958;2022-11-04T18:41:54;11.00;99.90
7192;DHT22;3637;51.494;11.958;2022-11-04T18:44:56;11.00;99.90
7192;DHT22;3637;51.494;11.958;2022-11-04T18:47:58;11.00;99.90
7192;DHT22;3637;51.494;11.958;2022-11-04T18:51:02;11.00;99.90
7192;DHT22;3637;51.494;11.958;2022-11-04T18:54:06;11.00;99.90
7192;DHT22;3637;51.494;11.958;2022-11-04T18:57:08;11.00;99.90
7192;DHT22;3637;51.494;11.958;2022-11-04T19:00:12;11.00;99.90
7192;DHT22;3637;51.494;11.958;2022-11-04T19:03:14;10.90;99.90
7192;DHT22;3637;51.494;11.958;2022-11-04T19:06:19;11.00;99.90
7192;DHT22;3637;51.494;11.958;2022-11-04T19:09:21;11.10;99.90
7192;DHT22;3637;51.494;11.958;2022-11-04T19:12:23;11.00;99.90
7192;DHT22;3637;51.494;11.958;2022-11-04T19:15:42;11.00;99.90
7192;DHT22;3637;51.494;11.958;2022-11-04T19:18:44;11.00;99.90
7192;DHT22;3637;51.494;11.958;2022-11-04T19:21:50;11.00;99.90
7192;DHT22;3637;51.494;11.958;2022-11-04T19:24:52;11.00;99.90
7192;DHT22;3637;51.494;11.958;2022-11-04T19:27:54;11.00;99.90
7192;DHT22;3637;51.494;11.958;2022-11-04T19:30:56;11.00;99.90
7192;DHT22;3637;51.494;11.958;2022-11-04T19:34:00;10.90;99.90
7192;DHT22;3637;51.494;11.958;2022-11-04T19:37:05;11.00;99.90
7192;DHT22;3637;51.494;11.958;2022-11-04T19:40:08;11.10;99.90
7192;DHT22;3637;51.494;11.958;2022-11-04T19:43:10;11.10;99.90
7192;DHT22;3637;51.494;11.958;2022-11-04T19:46:11;11.10;99.90
7192;DHT22;3637;51.494;11.958;2022-11-04T19:49:13;11.10;99.90
7192;DHT22;3637;51.494;11.958;2022-11-04T19:52:16;11.10;99.90
7192;DHT22;3637;51.494;11.958;2022-11-04T19:55:19;11.10;99.90
7192;DHT22;3637;51.494;11.958;2022-11-04T19:58:21;11.00;99.90
7192;DHT22;3637;51.494;11.958;2022-11-04T20:01:24;11.10;99.90
7192;DHT22;3637;51.494;11.958;2022-11-04T20:04:28;11.10;99.90
7192;DHT22;3637;51.494;11.958;2022-11-04T20:07:32;11.10;99.90